Time,TemperatureF,DewpointF,PressureIn,WindDirection,WindDirectionDegrees,WindSpeedMPH,WindSpeedGustMPH,Humidity,HourlyPrecipIn,Conditions,Clouds,dailyrainin,SoftwareType,DateUTC
2013-08-23 00:22:00,73.0,72.0,-100.00,ESE,113,2.0,-999.0,96,-99.99,,,-99.99,,2013-08-23 05:22:00,
2013-08-23 00:52:00,72.0,71.0,-100.00,ESE,113,2.0,-999.0,96,-99.99,,,-99.99,,2013-08-23 05:52:00,
2013-08-23 01:22:00,72.0,71.0,-100.00,SE,135,1.0,-999.0,96,-99.99,,,-99.99,,2013-08-23 06:22:00,
2013-08-23 01:52:00,71.0,69.0,-100.00,SE,135,1.0,-999.0,96,-99.99,,,-99.99,,2013-08-23 06:52:00,
2013-08-23 02:12:00,70.0,69.0,-100.00,SE,135,2.0,-999.0,96,-99.99,,,-99.99,,2013-08-23 07:12:00,
2013-08-23 02:22:00,70.0,69.0,-100.00,SE,135,2.0,-999.0,96,-99.99,,,-99.99,,2013-08-23 07:22:00,
2013-08-23 02:52:00,71.0,70.0,-100.00,SE,135,2.0,-999.0,96,-99.99,,,-99.99,,2013-08-23 07:52:00,
2013-08-23 03:22:00,71.0,70.0,-100.00,SE,135,1.0,-999.0,96,-99.99,,,-99.99,,2013-08-23 08:22:00,
2013-08-23 03:52:00,71.0,69.0,-100.00,SE,135,1.0,-999.0,96,-99.99,,,-99.99,,2013-08-23 08:52:00,
2013-08-23 04:21:00,70.0,69.0,-100.00,SE,135,1.0,-999.0,96,-99.99,,,-99.99,,2013-08-23 09:21:00,
2013-08-23 04:53:00,71.0,69.0,-100.00,SSE,158,2.0,-999.0,96,-99.99,,,-99.99,,2013-08-23 09:53:00,
2013-08-23 05:22:00,71.0,69.0,-100.00,SE,135,2.0,-999.0,96,-99.99,,,-99.99,,2013-08-23 10:22:00,
2013-08-23 05:53:00,70.0,69.0,-100.00,SE,135,1.0,-999.0,96,-99.99,,,-99.99,,2013-08-23 10:53:00,
2013-08-23 06:22:00,69.0,68.0,-100.00,SE,135,1.0,-999.0,96,-99.99,,,-99.99,,2013-08-23 11:22:00,
2013-08-23 06:53:00,68.0,67.0,-100.00,SE,135,2.0,-999.0,96,-99.99,,,-99.99,,2013-08-23 11:53:00,
2013-08-23 07:22:00,68.0,66.0,-100.00,SSE,158,2.0,-999.0,96,-99.99,,,-99.99,,2013-08-23 12:22:00,
2013-08-23 07:52:00,70.0,68.0,-100.00,SSE,158,2.0,-999.0,96,-99.99,,,-99.99,,2013-08-23 12:52:00,
2013-08-23 08:22:00,70.0,69.0,-100.00,SSE,158,1.0,-999.0,96,-99.99,,,-99.99,,2013-08-23 13:22:00,
2013-08-23 08:52:00,72.0,70.0,-100.00,SSE,158,2.0,-999.0,94,-99.99,,,-99.99,,2013-08-23 13:52:00,
2013-08-23 09:21:00,75.0,71.0,-100.00,SSE,158,2.0,-999.0,88,-99.99,,,-99.99,,2013-08-23 14:21:00,
2013-08-23 09:52:00,79.0,71.0,-100.00,SSE,158,2.0,-999.0,78,-99.99,,,-99.99,,2013-08-23 14:52:00,
2013-08-23 10:22:00,81.0,72.0,-100.00,South,180,2.0,-999.0,74,-99.99,,,-99.99,,2013-08-23 15:22:00,
2013-08-23 10:54:00,84.0,72.0,-100.00,SSE,158,2.0,-999.0,68,-99.99,,,-99.99,,2013-08-23 15:54:00,
2013-08-23 12:53:00,89.0,72.0,-100.00,SE,135,3.0,-999.0,56,-99.99,,,-99.99,,2013-08-23 17:53:00,
2013-08-23 13:22:00,90.0,72.0,-100.00,SE,135,4.0,-999.0,54,-99.99,,,-99.99,,2013-08-23 18:22:00,
2013-08-23 13:52:00,91.0,72.0,-100.00,SSE,158,3.0,-999.0,53,-99.99,,,-99.99,,2013-08-23 18:52:00,
2013-08-23 14:22:00,91.0,68.0,-100.00,SSE,158,5.0,-999.0,47,-99.99,,,-99.99,,2013-08-23 19:22:00,
2013-08-23 14:52:00,89.0,69.0,-100.00,SSE,158,3.0,-999.0,50,-99.99,,,-99.99,,2013-08-23 19:52:00,
2013-08-23 15:22:00,92.0,72.0,-100.00,South,180,3.0,-999.0,52,-99.99,,,-99.99,,2013-08-23 20:22:00,
2013-08-23 15:52:00,92.0,69.0,-100.00,South,180,4.0,-999.0,48,-99.99,,,-99.99,,2013-08-23 20:52:00,
2013-08-23 16:22:00,92.0,72.0,-100.00,SSE,158,4.0,-999.0,51,-99.99,,,-99.99,,2013-08-23 21:22:00,
2013-08-23 16:54:00,92.0,71.0,-100.00,SSE,158,4.0,-999.0,50,-99.99,,,-99.99,,2013-08-23 21:54:00,
2013-08-23 17:24:00,92.0,71.0,-100.00,SSE,158,3.0,-999.0,50,-99.99,,,-99.99,,2013-08-23 22:24:00,
2013-08-23 17:53:00,89.0,70.0,-100.00,SSE,158,3.0,-999.0,53,-99.99,,,-99.99,,2013-08-23 22:53:00,
2013-08-23 18:22:00,88.0,71.0,-100.00,SSE,158,2.0,-999.0,57,-99.99,,,-99.99,,2013-08-23 23:22:00,
2013-08-23 18:54:00,90.0,72.0,-100.00,SSE,158,3.0,-999.0,56,-99.99,,,-99.99,,2013-08-23 23:54:00,
2013-08-23 19:21:00,88.0,70.0,-100.00,SSE,158,3.0,-999.0,56,-99.99,,,-99.99,,2013-08-24 00:21:00,
2013-08-23 19:53:00,86.0,69.0,-100.00,SSE,158,3.0,-999.0,57,-99.99,,,-99.99,,2013-08-24 00:53:00,
2013-08-23 20:22:00,83.0,69.0,-100.00,SSE,158,2.0,-999.0,63,-99.99,,,-99.99,,2013-08-24 01:22:00,
2013-08-23 20:53:00,81.0,71.0,-100.00,SE,135,2.0,-999.0,71,-99.99,,,-99.99,,2013-08-24 01:53:00,
2013-08-23 21:22:00,80.0,72.0,-100.00,SE,135,2.0,-999.0,76,-99.99,,,-99.99,,2013-08-24 02:22:00,
2013-08-23 21:52:00,79.0,72.0,-100.00,SE,135,2.0,-999.0,78,-99.99,,,-99.99,,2013-08-24 02:52:00,
2013-08-23 22:22:00,80.0,72.0,-100.00,SSE,158,3.0,-999.0,76,-99.99,,,-99.99,,2013-08-24 03:22:00,
2013-08-23 22:55:00,80.0,71.0,-100.00,SSE,158,3.0,-999.0,74,-99.99,,,-99.99,,2013-08-24 03:55:00,
2013-08-23 23:24:00,79.0,71.0,-100.00,SSE,158,3.0,-999.0,76,-99.99,,,-99.99,,2013-08-24 04:24:00,
2013-08-23 23:53:00,78.0,71.0,-100.00,SSE,158,3.0,-999.0,78,-99.99,,,-99.99,,2013-08-24 04:53:00,